createdAt,value
2022-12-08T00:01:04.137Z,9.75
2022-12-08T00:03:30.867Z,10.98
2022-12-08T00:06:16.053Z,12.85
2022-12-08T00:09:09.077Z,11.18
2022-12-08T00:11:36.485Z,14.68
2022-12-08T00:14:03.399Z,13.35
2022-12-08T00:16:30.057Z,12.18
2022-12-08T00:18:56.715Z,11.93
2022-12-08T00:21:23.379Z,12.13
2022-12-08T00:23:49.964Z,14.07
2022-12-08T00:26:16.633Z,13.80
2022-12-08T00:28:43.391Z,15.10
2022-12-08T00:31:11.601Z,13.70
2022-12-08T00:33:38.694Z,13.38
2022-12-08T00:36:10.243Z,15.60
2022-12-08T00:38:37.562Z,19.60
2022-12-08T00:41:07.504Z,15.95
2022-12-08T00:43:34.162Z,13.68
2022-12-08T00:46:00.791Z,15.57
2022-12-08T00:48:27.414Z,17.10
2022-12-08T00:50:54.058Z,21.30
2022-12-08T00:53:20.684Z,15.05
2022-12-08T00:55:47.364Z,17.35
2022-12-08T00:58:13.973Z,19.08
2022-12-08T01:00:42.296Z,18.17
2022-12-08T01:03:12.810Z,16.83
2022-12-08T01:05:39.948Z,16.50
2022-12-08T01:08:07.172Z,18.30
2022-12-08T01:10:38.030Z,14.45
2022-12-08T01:13:04.871Z,17.35
2022-12-08T01:15:31.513Z,17.95
2022-12-08T01:17:58.112Z,16.00
2022-12-08T01:20:24.940Z,19.17
2022-12-08T01:22:51.570Z,17.55
2022-12-08T01:25:18.478Z,16.17
2022-12-08T01:27:45.125Z,19.73
2022-12-08T01:30:13.196Z,20.48
2022-12-08T01:32:39.836Z,16.15
2022-12-08T01:35:06.675Z,19.83
2022-12-08T01:37:33.295Z,17.98
2022-12-08T01:39:59.931Z,17.23
2022-12-08T01:42:26.532Z,19.17
2022-12-08T01:44:57.342Z,18.05
2022-12-08T01:47:28.658Z,20.77
2022-12-08T01:49:55.308Z,20.02
2022-12-08T01:52:30.414Z,16.02
2022-12-08T01:55:02.630Z,17.48
2022-12-08T01:57:33.758Z,19.17
2022-12-08T02:00:14.037Z,17.23
2022-12-08T02:02:59.820Z,20.15
2022-12-08T02:05:37.722Z,20.20
2022-12-08T02:08:07.991Z,18.90
2022-12-08T02:10:37.467Z,15.35
2022-12-08T02:13:06.436Z,18.38
2022-12-08T02:15:49.039Z,19.48
2022-12-08T02:18:18.701Z,21.67
2022-12-08T02:20:50.286Z,19.40
2022-12-08T02:23:39.960Z,19.30
2022-12-08T02:26:43.363Z,21.48
2022-12-08T02:29:21.745Z,18.70
2022-12-08T02:32:28.413Z,20.48
2022-12-08T02:34:55.001Z,19.73
2022-12-08T02:37:29.651Z,22.98
2022-12-08T02:40:03.125Z,21.20
2022-12-08T02:42:44.442Z,19.33
2022-12-08T02:45:29.552Z,22.00
2022-12-08T02:47:58.886Z,22.30
2022-12-08T02:50:26.510Z,22.30
2022-12-08T02:52:53.341Z,25.10
2022-12-08T02:55:22.984Z,23.40
2022-12-08T02:58:10.045Z,19.95
2022-12-08T03:01:00.174Z,24.83
2022-12-08T03:03:43.869Z,23.85
2022-12-08T03:06:40.960Z,18.77
2022-12-08T03:09:24.329Z,23.17
2022-12-08T03:11:59.055Z,21.00
2022-12-08T03:14:26.073Z,19.35
2022-12-08T03:16:56.929Z,23.63
2022-12-08T03:19:27.344Z,21.75
2022-12-08T03:22:03.525Z,21.00
2022-12-08T03:24:36.703Z,19.65
2022-12-08T03:27:07.903Z,18.20
2022-12-08T03:29:34.860Z,18.98
2022-12-08T03:32:40.458Z,18.83
2022-12-08T03:35:12.999Z,18.45
2022-12-08T03:37:40.978Z,18.67
2022-12-08T03:40:10.769Z,21.50
2022-12-08T03:42:37.479Z,17.90
2022-12-08T03:45:05.058Z,19.50
2022-12-08T03:47:31.810Z,20.23
2022-12-08T03:49:58.402Z,19.60
2022-12-08T03:52:25.036Z,21.13
2022-12-08T03:54:51.666Z,18.77
2022-12-08T03:57:18.253Z,20.73
2022-12-08T03:59:44.877Z,22.13
2022-12-08T04:02:11.539Z,20.02
2022-12-08T04:04:38.174Z,17.08
2022-12-08T04:07:04.785Z,19.70
2022-12-08T04:09:31.781Z,20.52
2022-12-08T04:11:58.381Z,19.23
2022-12-08T04:14:25.029Z,18.23
2022-12-08T04:16:51.623Z,23.08
2022-12-08T04:19:18.201Z,19.58
2022-12-08T04:21:44.827Z,19.05
2022-12-08T04:24:11.581Z,16.40
2022-12-08T04:26:38.225Z,18.45
2022-12-08T04:29:04.963Z,18.85
2022-12-08T04:31:31.627Z,18.45
2022-12-08T04:33:58.277Z,20.73
2022-12-08T04:36:24.915Z,15.93
2022-12-08T04:38:51.527Z,16.48
2022-12-08T04:41:18.165Z,18.80
2022-12-08T04:43:44.862Z,16.17
2022-12-08T04:46:11.622Z,19.55
2022-12-08T04:48:38.778Z,18.75
2022-12-08T04:51:06.017Z,17.60
2022-12-08T04:53:33.015Z,20.05
2022-12-08T04:55:59.640Z,20.17
2022-12-08T04:58:26.272Z,18.10
2022-12-08T05:00:52.917Z,17.65
2022-12-08T05:03:23.831Z,17.58
2022-12-08T05:05:54.833Z,18.83
2022-12-08T05:08:21.633Z,18.30
2022-12-08T05:10:48.283Z,20.13
2022-12-08T05:13:14.861Z,20.42
2022-12-08T05:15:41.482Z,20.00
2022-12-08T05:18:08.090Z,20.40
2022-12-08T05:20:35.151Z,21.85
2022-12-08T05:23:01.837Z,22.42
2022-12-08T05:25:28.490Z,21.77
2022-12-08T05:28:06.214Z,16.90
2022-12-08T05:30:38.192Z,22.00
2022-12-08T05:33:04.801Z,28.23
2022-12-08T05:35:31.521Z,24.30
2022-12-08T05:37:58.156Z,23.20
2022-12-08T05:40:24.765Z,24.67
2022-12-08T05:42:51.365Z,21.95
2022-12-08T05:45:17.964Z,22.73
2022-12-08T05:47:44.903Z,23.60
2022-12-08T05:50:11.525Z,21.35
2022-12-08T05:52:38.116Z,22.52
2022-12-08T05:55:05.158Z,23.67
2022-12-08T05:57:31.753Z,24.60
2022-12-08T05:59:59.490Z,26.05
2022-12-08T06:02:26.885Z,23.13
2022-12-08T06:04:53.663Z,22.30
2022-12-08T06:07:20.244Z,23.90
2022-12-08T06:09:46.882Z,20.75
2022-12-08T06:12:13.659Z,24.75
2022-12-08T06:14:43.184Z,31.08
2022-12-08T06:17:09.898Z,27.15
2022-12-08T06:19:36.595Z,23.10
2022-12-08T06:22:03.258Z,26.92
2022-12-08T06:24:29.852Z,28.85
2022-12-08T06:26:56.491Z,25.58
2022-12-08T06:29:23.315Z,26.60
2022-12-08T06:31:50.053Z,24.88
2022-12-08T06:34:16.731Z,26.23
2022-12-08T06:36:43.300Z,58.28
2022-12-08T06:39:10.541Z,24.02
2022-12-08T06:41:57.227Z,26.65
2022-12-08T06:44:23.974Z,25.13
2022-12-08T06:46:50.666Z,28.35
2022-12-08T06:49:17.294Z,26.83
2022-12-08T06:51:43.906Z,23.83
2022-12-08T06:54:10.491Z,25.10
2022-12-08T06:56:37.075Z,20.70
2022-12-08T06:59:04.055Z,25.30
2022-12-08T07:01:30.712Z,24.13
2022-12-08T07:03:57.367Z,24.17
2022-12-08T07:06:24.772Z,25.52
2022-12-08T07:08:51.873Z,25.48
2022-12-08T07:11:21.993Z,21.60
2022-12-08T07:13:49.264Z,22.65
2022-12-08T07:16:15.907Z,23.42
2022-12-08T07:18:43.874Z,25.33
2022-12-08T07:21:14.781Z,21.10
2022-12-08T07:23:42.189Z,21.30
2022-12-08T07:26:11.655Z,17.90
2022-12-08T07:28:40.535Z,22.40
2022-12-08T07:31:15.387Z,23.10
2022-12-08T07:33:41.999Z,19.60
2022-12-08T07:36:08.847Z,26.27
2022-12-08T07:38:35.729Z,20.25
2022-12-08T07:41:02.401Z,17.33
2022-12-08T07:43:29.148Z,18.23
2022-12-08T07:45:55.926Z,18.45
2022-12-08T07:48:22.616Z,19.45
2022-12-08T07:50:49.191Z,16.98
2022-12-08T07:53:23.162Z,15.02
2022-12-08T07:55:49.757Z,21.85
2022-12-08T07:58:16.384Z,17.63
2022-12-08T08:00:43.049Z,15.07
2022-12-08T08:03:12.115Z,15.43
2022-12-08T08:05:38.924Z,16.02
2022-12-08T08:08:05.690Z,14.13
2022-12-08T08:10:32.685Z,14.70
2022-12-08T08:13:00.238Z,15.75
2022-12-08T08:15:27.583Z,16.17
2022-12-08T08:17:54.477Z,19.92
2022-12-08T08:20:21.226Z,14.93
2022-12-08T08:22:49.364Z,15.80
2022-12-08T08:25:17.517Z,19.20
2022-12-08T08:27:45.623Z,17.13
2022-12-08T08:30:19.734Z,16.23
2022-12-08T08:32:48.101Z,17.15
2022-12-08T08:35:14.735Z,14.60
2022-12-08T08:37:45.766Z,18.63
2022-12-08T08:40:15.497Z,16.73
2022-12-08T08:42:42.088Z,14.40
2022-12-08T08:45:09.092Z,15.00
2022-12-08T08:47:35.771Z,13.05
2022-12-08T08:50:02.567Z,14.52
2022-12-08T08:52:30.067Z,16.02
2022-12-08T08:54:56.687Z,15.63
2022-12-08T08:57:25.707Z,13.77
2022-12-08T08:59:53.561Z,14.23
2022-12-08T09:02:21.154Z,13.57
2022-12-08T09:04:48.384Z,14.10
2022-12-08T09:07:15.979Z,13.65
2022-12-08T09:09:42.680Z,15.50
2022-12-08T09:12:09.734Z,17.02
2022-12-08T09:14:36.551Z,11.82
2022-12-08T09:17:03.261Z,18.65
2022-12-08T09:19:29.921Z,15.35
2022-12-08T09:21:56.605Z,15.23
2022-12-08T09:24:23.293Z,13.20
2022-12-08T09:26:49.902Z,15.60
2022-12-08T09:29:17.599Z,12.93
2022-12-08T09:31:44.360Z,15.02
2022-12-08T09:34:12.267Z,13.68
2022-12-08T09:36:39.156Z,16.52
2022-12-08T09:39:06.038Z,14.18
2022-12-08T09:41:43.349Z,11.98
2022-12-08T09:44:30.772Z,13.68
2022-12-08T09:46:58.721Z,14.95
2022-12-08T09:49:37.113Z,15.50
2022-12-08T09:52:04.809Z,13.85
2022-12-08T09:54:34.492Z,14.55
2022-12-08T09:57:07.533Z,12.15
2022-12-08T09:59:35.583Z,13.90
2022-12-08T10:02:13.344Z,12.27
2022-12-08T10:04:41.456Z,13.30
2022-12-08T10:07:37.806Z,14.02
2022-12-08T10:10:29.156Z,14.07
2022-12-08T10:13:08.580Z,12.68
2022-12-08T10:15:52.905Z,13.77
2022-12-08T10:18:29.545Z,14.68
2022-12-08T10:21:10.547Z,14.52
2022-12-08T10:23:39.942Z,12.77
2022-12-08T10:26:07.962Z,12.82
2022-12-08T10:28:37.641Z,12.80
2022-12-08T10:31:24.541Z,16.80
2022-12-08T10:34:10.255Z,11.57
2022-12-08T10:36:50.661Z,12.07
2022-12-08T10:39:30.545Z,12.48
2022-12-08T10:42:15.435Z,14.05
2022-12-08T10:44:53.634Z,13.05
2022-12-08T10:47:25.955Z,12.98
2022-12-08T10:50:22.203Z,13.07
2022-12-08T10:53:00.153Z,12.55
2022-12-08T10:55:28.040Z,11.68
2022-12-08T10:57:54.740Z,12.13
2022-12-08T11:00:25.301Z,11.77
2022-12-08T11:02:55.751Z,10.77
2022-12-08T11:05:26.014Z,9.38
2022-12-08T11:07:54.522Z,10.35
2022-12-08T11:10:34.837Z,9.32
2022-12-08T11:13:04.413Z,10.88
2022-12-08T11:15:36.362Z,8.43
2022-12-08T11:18:22.879Z,10.07
2022-12-08T11:20:57.740Z,8.98
2022-12-08T11:23:25.827Z,7.68
2022-12-08T11:25:55.854Z,10.20
2022-12-08T11:28:24.291Z,8.70
2022-12-08T11:31:31.763Z,9.07
2022-12-08T11:33:58.540Z,7.43
2022-12-08T11:36:29.405Z,7.68
2022-12-08T11:38:59.867Z,6.78
2022-12-08T11:41:38.777Z,5.35
2022-12-08T11:44:25.801Z,9.43
2022-12-08T11:46:58.411Z,4.28
2022-12-08T11:49:34.578Z,3.40
2022-12-08T11:52:24.257Z,6.38
2022-12-08T11:54:58.183Z,3.22
2022-12-08T11:57:28.490Z,3.83
2022-12-08T11:59:57.626Z,3.97
2022-12-08T12:02:27.168Z,3.95
2022-12-08T12:05:03.204Z,4.78
2022-12-08T12:07:58.957Z,4.18
2022-12-08T12:10:36.999Z,4.63
2022-12-08T12:13:03.547Z,5.45
2022-12-08T12:16:06.912Z,4.13
2022-12-08T12:18:45.377Z,4.05
2022-12-08T12:21:19.141Z,3.75
2022-12-08T12:24:05.765Z,4.15
2022-12-08T12:26:37.165Z,2.88
2022-12-08T12:29:17.061Z,2.17
2022-12-08T12:31:49.648Z,1.48
2022-12-08T12:34:24.095Z,2.88
2022-12-08T12:37:12.044Z,1.70
2022-12-08T12:39:56.016Z,2.70
2022-12-08T12:43:02.666Z,2.60
2022-12-08T12:45:34.007Z,2.40
2022-12-08T12:48:00.559Z,1.58
2022-12-08T12:50:33.210Z,2.63
2022-12-08T12:55:59.928Z,2.28
2022-12-08T12:58:29.594Z,4.18
2022-12-08T13:01:11.665Z,2.85
2022-12-08T13:03:45.620Z,3.00
2022-12-08T13:06:15.097Z,1.85
2022-12-08T13:08:51.238Z,1.45
2022-12-08T13:11:18.334Z,1.92
2022-12-08T13:13:58.554Z,1.15
2022-12-08T13:16:26.796Z,1.95
2022-12-08T13:19:03.765Z,2.25
2022-12-08T13:21:36.793Z,2.78
2022-12-08T13:24:26.727Z,2.13
2022-12-08T13:27:05.436Z,2.22
2022-12-08T13:29:33.214Z,1.77
2022-12-08T13:32:04.376Z,2.33
2022-12-08T13:34:53.066Z,2.45
2022-12-08T13:37:30.997Z,0.77
2022-12-08T13:40:03.725Z,1.65
2022-12-08T13:42:49.950Z,1.80
2022-12-08T13:45:58.938Z,2.78
2022-12-08T13:55:49.837Z,3.05
2022-12-08T13:57:29.312Z,0.88
2022-12-08T14:00:07.236Z,0.85
2022-12-08T14:02:43.737Z,1.40
2022-12-08T14:05:19.096Z,2.45
2022-12-08T14:07:48.879Z,5.60
2022-12-08T14:10:29.121Z,7.95
2022-12-08T14:13:10.298Z,6.63
2022-12-08T14:15:39.004Z,5.95
2022-12-08T14:18:07.167Z,5.80
2022-12-08T14:20:52.255Z,3.67
2022-12-08T14:23:22.283Z,4.85
2022-12-08T14:25:48.980Z,7.75
2022-12-08T14:28:16.381Z,7.93
2022-12-08T14:30:43.226Z,6.13
2022-12-08T14:33:15.250Z,6.13
2022-12-08T14:35:42.156Z,6.78
2022-12-08T14:38:17.918Z,4.85
2022-12-08T14:40:47.366Z,5.13
2022-12-08T14:43:20.082Z,4.47
2022-12-08T14:48:33.384Z,6.00
2022-12-08T14:51:24.097Z,6.30
2022-12-08T14:54:01.280Z,5.28
2022-12-08T14:56:54.235Z,4.55
2022-12-08T14:59:30.368Z,7.18
2022-12-08T15:02:15.912Z,3.88
2022-12-08T15:04:45.860Z,4.47
2022-12-08T15:07:24.409Z,3.63
2022-12-08T15:10:08.289Z,5.90
2022-12-08T15:12:35.179Z,4.65
2022-12-08T15:15:15.538Z,4.72
2022-12-08T15:17:44.657Z,4.63
2022-12-08T15:20:43.172Z,3.47
2022-12-08T15:23:27.231Z,3.20
2022-12-08T15:25:55.452Z,3.08
2022-12-08T15:28:29.506Z,3.60
2022-12-08T15:30:57.569Z,1.85
2022-12-08T15:33:24.472Z,1.48
2022-12-08T15:35:51.557Z,3.05
2022-12-08T15:38:23.104Z,4.35
2022-12-08T15:40:50.078Z,3.28
2022-12-08T15:43:16.817Z,3.05
2022-12-08T15:45:57.498Z,2.38
2022-12-08T15:48:28.066Z,3.10
2022-12-08T15:50:56.096Z,2.15
2022-12-08T15:53:22.960Z,2.03
2022-12-08T15:56:18.808Z,2.05
2022-12-08T15:58:55.191Z,4.43
2022-12-08T16:01:22.699Z,4.45
2022-12-08T16:09:33.775Z,4.03
2022-12-08T16:12:19.705Z,2.92
2022-12-08T16:15:48.170Z,3.15
2022-12-08T16:17:34.239Z,5.35
2022-12-08T16:20:01.638Z,2.85
2022-12-08T16:25:19.416Z,5.22
2022-12-08T16:30:36.450Z,6.18
2022-12-08T16:33:03.272Z,7.35
2022-12-08T16:35:30.606Z,7.35
2022-12-08T16:37:57.727Z,5.80
2022-12-08T16:40:24.753Z,5.72
2022-12-08T16:42:51.556Z,4.78
2022-12-08T16:45:18.223Z,4.30
2022-12-08T16:47:50.342Z,6.40
2022-12-08T16:50:26.709Z,6.35
2022-12-08T16:52:59.079Z,7.15
2022-12-08T16:55:25.938Z,6.13
2022-12-08T16:57:53.137Z,4.50
2022-12-08T17:00:27.283Z,6.90
2022-12-08T17:02:55.066Z,7.00
2022-12-08T17:05:24.508Z,6.88
2022-12-08T17:07:53.087Z,6.15
2022-12-08T17:10:25.653Z,6.43
2022-12-08T17:12:53.081Z,5.50
2022-12-08T17:15:22.610Z,5.93
2022-12-08T17:17:49.380Z,4.85
2022-12-08T17:20:19.394Z,5.85
2022-12-08T17:22:46.313Z,4.95
2022-12-08T17:25:12.913Z,5.50
2022-12-08T17:27:40.062Z,5.45
2022-12-08T17:30:08.947Z,4.75
2022-12-08T17:32:37.226Z,4.95
2022-12-08T17:35:04.418Z,7.32
2022-12-08T17:37:31.360Z,5.78
2022-12-08T17:39:58.043Z,5.70
2022-12-08T17:42:27.061Z,6.72
2022-12-08T17:44:54.612Z,5.10
2022-12-08T17:47:21.743Z,7.57
2022-12-08T17:49:48.523Z,13.73
2022-12-08T17:52:15.372Z,13.50
2022-12-08T17:54:42.105Z,13.93
2022-12-08T17:57:08.888Z,14.50
2022-12-08T17:59:35.616Z,13.20
2022-12-08T18:02:02.449Z,15.57
2022-12-08T18:04:29.211Z,13.60
2022-12-08T18:06:58.118Z,13.07
2022-12-08T18:09:24.725Z,10.55
2022-12-08T18:11:51.649Z,12.85
2022-12-08T18:14:18.360Z,13.35
2022-12-08T18:16:46.467Z,14.25
2022-12-08T18:19:14.073Z,14.30
2022-12-08T18:21:42.019Z,18.10
2022-12-08T18:24:15.140Z,13.23
2022-12-08T18:26:41.722Z,13.98
2022-12-08T18:29:08.315Z,15.50
2022-12-08T18:31:35.041Z,17.02
2022-12-08T18:34:02.694Z,14.25
2022-12-08T18:36:29.353Z,14.30
2022-12-08T18:38:56.073Z,16.08
2022-12-08T18:41:25.674Z,14.15
2022-12-08T18:43:53.894Z,16.48
2022-12-08T18:46:20.767Z,14.05
2022-12-08T18:48:49.461Z,16.13
2022-12-08T18:51:21.824Z,11.80
2022-12-08T18:53:49.073Z,11.85
2022-12-08T18:56:27.841Z,15.25
2022-12-08T18:59:01.255Z,13.70
2022-12-08T19:01:29.922Z,15.98
2022-12-08T19:04:26.884Z,17.40
2022-12-08T19:06:45.974Z,19.23
2022-12-08T19:09:14.129Z,15.43
2022-12-08T19:11:41.450Z,15.68
2022-12-08T19:14:08.429Z,14.40
2022-12-08T19:16:35.465Z,19.33
2022-12-08T19:19:02.338Z,20.33
2022-12-08T19:21:29.136Z,20.45
2022-12-08T19:23:58.118Z,18.35
2022-12-08T19:26:26.580Z,15.80
2022-12-08T19:28:53.618Z,17.15
2022-12-08T19:31:20.494Z,15.38
2022-12-08T19:33:47.096Z,24.77
2022-12-08T19:36:17.791Z,21.73
2022-12-08T19:39:03.052Z,21.80
2022-12-08T19:41:48.507Z,19.02
2022-12-08T19:47:01.837Z,23.27
2022-12-08T19:49:28.589Z,21.83
2022-12-08T19:51:55.470Z,20.73
2022-12-08T19:54:22.157Z,17.25
2022-12-08T19:56:48.756Z,23.10
2022-12-08T19:59:15.732Z,19.65
2022-12-08T20:01:43.979Z,20.90
2022-12-08T20:04:14.385Z,20.67
2022-12-08T20:06:41.605Z,19.38
2022-12-08T20:09:08.338Z,20.13
2022-12-08T20:11:34.940Z,21.70
2022-12-08T20:14:01.686Z,26.00
2022-12-08T20:16:28.420Z,24.27
2022-12-08T20:18:55.139Z,23.10
2022-12-08T20:21:22.218Z,26.02
2022-12-08T20:23:49.792Z,22.13
2022-12-08T20:26:19.837Z,26.15
2022-12-08T20:28:46.823Z,31.60
2022-12-08T20:31:20.771Z,32.42
2022-12-08T20:33:47.669Z,31.15
2022-12-08T20:36:20.114Z,29.65
2022-12-08T20:38:48.373Z,25.50
2022-12-08T20:41:16.090Z,25.85
2022-12-08T20:43:47.234Z,22.75
2022-12-08T20:46:15.904Z,22.30
2022-12-08T20:48:43.321Z,21.38
2022-12-08T20:51:13.971Z,16.08
2022-12-08T20:53:41.024Z,20.17
2022-12-08T20:56:08.480Z,20.08
2022-12-08T20:58:35.333Z,22.80
2022-12-08T21:01:08.942Z,19.60
2022-12-08T21:03:36.342Z,18.50
2022-12-08T21:06:03.244Z,21.27
2022-12-08T21:08:30.222Z,21.17
2022-12-08T21:10:57.382Z,20.50
2022-12-08T21:13:24.774Z,17.98
2022-12-08T21:15:51.634Z,21.75
2022-12-08T21:18:18.713Z,20.83
2022-12-08T21:20:48.243Z,16.85
2022-12-08T21:23:16.229Z,18.38
2022-12-08T21:25:45.174Z,20.92
2022-12-08T21:28:12.682Z,20.50
2022-12-08T21:30:40.145Z,24.45
2022-12-08T21:33:07.181Z,25.48
2022-12-08T21:35:34.107Z,22.75
2022-12-08T21:38:00.992Z,28.42
2022-12-08T21:40:28.007Z,32.92
2022-12-08T21:42:54.791Z,30.30
2022-12-08T21:45:21.997Z,26.83
2022-12-08T21:47:49.752Z,26.25
2022-12-08T21:50:17.833Z,30.73
2022-12-08T21:52:47.304Z,30.55
2022-12-08T21:55:15.367Z,25.13
2022-12-08T21:57:42.451Z,25.10
2022-12-08T22:00:13.281Z,25.95
2022-12-08T22:02:40.109Z,28.20
2022-12-08T22:05:07.233Z,29.02
2022-12-08T22:07:34.008Z,24.77
2022-12-08T22:10:00.848Z,25.13
2022-12-08T22:12:27.515Z,26.48
2022-12-08T22:14:54.182Z,23.60
2022-12-08T22:17:21.265Z,24.50
2022-12-08T22:19:48.179Z,20.27
2022-12-08T22:22:14.808Z,24.08
2022-12-08T22:24:41.433Z,18.70
2022-12-08T22:27:08.208Z,21.92
2022-12-08T22:29:34.857Z,17.45
2022-12-08T22:32:01.715Z,18.52
2022-12-08T22:34:28.448Z,16.38
2022-12-08T22:36:55.151Z,21.48
2022-12-08T22:39:21.868Z,19.85
2022-12-08T22:41:48.505Z,20.88
2022-12-08T22:44:16.356Z,20.77
2022-12-08T22:46:43.096Z,23.98
2022-12-08T22:49:09.739Z,18.02
2022-12-08T22:51:36.865Z,22.85
2022-12-08T22:54:04.393Z,20.33
2022-12-08T22:56:31.181Z,22.15
2022-12-08T22:58:58.555Z,21.00
2022-12-08T23:01:29.031Z,23.52
2022-12-08T23:03:56.948Z,20.50
2022-12-08T23:06:25.474Z,20.20
2022-12-08T23:08:52.606Z,21.33
2022-12-08T23:11:20.626Z,16.70
2022-12-08T23:13:47.621Z,21.38
2022-12-08T23:16:14.497Z,20.48
2022-12-08T23:18:43.543Z,23.92
2022-12-08T23:21:13.573Z,21.23
2022-12-08T23:23:40.654Z,23.70
2022-12-08T23:26:23.382Z,19.85
2022-12-08T23:28:50.569Z,20.38
2022-12-08T23:31:17.589Z,20.63
2022-12-08T23:33:44.762Z,17.85
2022-12-08T23:36:12.733Z,19.65
2022-12-08T23:38:39.490Z,18.48
2022-12-08T23:41:08.207Z,18.02
2022-12-08T23:43:35.303Z,21.77
2022-12-08T23:46:02.250Z,21.27
2022-12-08T23:48:29.238Z,16.63
2022-12-08T23:50:57.020Z,21.55
2022-12-08T23:53:23.940Z,20.35
2022-12-08T23:55:50.650Z,19.05
2022-12-08T23:58:17.260Z,19.70
